Terminal Aerodrome Forecast
Issued by NWS

Home | Current Version | Previous Version | Text Only | Print | Product List | Glossary Off
Versions: 1 2 3 4 5 6 7 8 9 10 11 12

000
FTUS45 KGGW 250521
TAFSDY
TAF
KSDY 250521Z 2506/2606 22006KT P6SM SKC
     FM251500 21012KT P6SM FEW230
     FM251900 24013KT P6SM FEW240
     FM252100 27014G22KT P6SM SCT220
     FM252300 31013G21KT P6SM SCT180
     FM260100 34016G24KT P6SM SCT090=

USA.gov is the U.S. government's official web portal to all federal, state and local government web resources and services.